Time;durP1;ratioP1;P1;durP2;ratioP2;P2;SDS_P1;SDS_P2;PMS_P1;PMS_P2;Temp;Humidity;BMP_temperature;BMP_pressure;BME280_temperature;BME280_humidity;BME280_pressure;Samples;Min_cycle;Max_cycle;Signal;HPM_P1;HPM_P2
2023/04/28 00:00:35;;;;;;;;;;;19.50;99.90;;;;;;5079200;28;19915;-67
2023/04/28 00:03:02;;;;;;;;;;;19.50;99.90;;;;;;5074585;28;19985;-68
2023/04/28 00:05:28;;;;;;;;;;;19.60;99.90;;;;;;5077610;28;20326;-67
2023/04/28 00:07:55;;;;;;;;;;;19.70;99.90;;;;;;5075639;28;20019;-68
2023/04/28 00:10:22;;;;;;;;;;;19.90;99.90;;;;;;5077714;28;19908;-68
2023/04/28 00:12:48;;;;;;;;;;;19.90;99.90;;;;;;5075959;28;19950;-67
2023/04/28 00:15:15;;;;;;;;;;;20.00;99.90;;;;;;5038224;28;19940;-68
2023/04/28 00:17:42;;;;;;;;;;;20.10;99.90;;;;;;5066033;28;19915;-68
2023/04/28 00:20:09;;;;;;;;;;;20.20;99.90;;;;;;5078072;28;20297;-68
2023/04/28 00:22:35;;;;;;;;;;;20.40;99.90;;;;;;5062343;28;20372;-67
2023/04/28 00:25:02;;;;;;;;;;;20.40;99.90;;;;;;5076557;28;20000;-69
2023/04/28 00:27:29;;;;;;;;;;;20.50;99.90;;;;;;5080015;28;19916;-68
2023/04/28 00:29:55;;;;;;;;;;;20.60;99.90;;;;;;5079909;28;19962;-69
2023/04/28 00:32:22;;;;;;;;;;;20.70;99.90;;;;;;5077426;28;19908;-66
2023/04/28 00:34:48;;;;;;;;;;;20.90;99.90;;;;;;5079716;28;19961;-66
2023/04/28 00:37:15;;;;;;;;;;;21.10;99.90;;;;;;5076512;28;19908;-68
2023/04/28 00:39:45;;;;;;;;;;;21.20;99.90;;;;;;5079257;28;19927;-67
2023/04/28 00:42:15;;;;;;;;;;;21.30;99.90;;;;;;5077021;28;19919;-68
2023/04/28 00:44:42;;;;;;;;;;;21.50;99.90;;;;;;5079476;28;20311;-67
2023/04/28 00:47:09;;;;;;;;;;;21.60;99.90;;;;;;5076142;28;19920;-66
2023/04/28 00:49:36;;;;;;;;;;;21.80;99.90;;;;;;5079539;28;19914;-67
2023/04/28 00:52:06;;;;;;;;;;;22.00;99.90;;;;;;5075145;28;20569;-66
2023/04/28 00:54:33;;;;;;;;;;;22.20;99.90;;;;;;5082487;28;19912;-65
2023/04/28 00:57:01;;;;;;;;;;;22.30;99.90;;;;;;5081905;28;19912;-65
2023/04/28 00:59:29;;;;;;;;;;;22.40;99.90;;;;;;5077926;28;19915;-66
2023/04/28 01:01:55;;;;;;;;;;;22.50;99.90;;;;;;5079780;28;19918;-67
2023/04/28 01:04:22;;;;;;;;;;;22.60;99.90;;;;;;5075493;28;20009;-67
2023/04/28 01:06:51;;;;;;;;;;;22.70;99.90;;;;;;5079505;28;19924;-66
2023/04/28 01:09:18;;;;;;;;;;;22.90;99.90;;;;;;5076455;28;20020;-67
2023/04/28 01:11:44;;;;;;;;;;;23.00;99.90;;;;;;5079309;28;20002;-67
2023/04/28 01:14:11;;;;;;;;;;;23.10;99.90;;;;;;5076549;28;20267;-67
2023/04/28 01:16:38;;;;;;;;;;;23.30;99.90;;;;;;5078654;28;19912;-67
2023/04/28 01:19:06;;;;;;;;;;;23.40;99.90;;;;;;5076545;28;20397;-67
2023/04/28 01:21:33;;;;;;;;;;;23.70;99.90;;;;;;5076868;28;19919;-65
2023/04/28 01:24:01;;;;;;;;;;;23.80;99.90;;;;;;5077740;28;19916;-66
2023/04/28 01:26:27;;;;;;;;;;;24.00;99.90;;;;;;5072743;28;19916;-66
2023/04/28 01:28:54;;;;;;;;;;;24.20;99.90;;;;;;5076549;28;19908;-66
2023/04/28 01:31:20;;;;;;;;;;;24.50;99.90;;;;;;5072324;28;19908;-67
2023/04/28 01:33:47;;;;;;;;;;;24.60;99.90;;;;;;5078982;28;20024;-67
2023/04/28 01:36:14;;;;;;;;;;;24.80;99.70;;;;;;5075867;28;19965;-68
2023/04/28 01:38:40;;;;;;;;;;;24.90;99.60;;;;;;5079034;28;19999;-70
2023/04/28 01:41:07;;;;;;;;;;;25.00;99.10;;;;;;5078090;28;19927;-69
2023/04/28 01:43:33;;;;;;;;;;;25.30;99.10;;;;;;5075485;28;19916;-66
2023/04/28 01:46:00;;;;;;;;;;;25.40;98.60;;;;;;5078431;28;20078;-67
2023/04/28 01:48:27;;;;;;;;;;;25.50;98.00;;;;;;5075590;28;20639;-64
2023/04/28 01:50:53;;;;;;;;;;;25.80;97.40;;;;;;5078261;28;19908;-63
2023/04/28 01:53:20;;;;;;;;;;;25.90;97.40;;;;;;5075279;28;20002;-64
2023/04/28 01:55:47;;;;;;;;;;;26.20;96.70;;;;;;5077237;28;19918;-66
2023/04/28 01:58:13;;;;;;;;;;;26.20;95.20;;;;;;5076451;28;19908;-67
2023/04/28 02:00:40;;;;;;;;;;;26.20;95.30;;;;;;5077752;28;19912;-64
2023/04/28 02:03:06;;;;;;;;;;;26.20;94.00;;;;;;5078343;28;20019;-64
2023/04/28 02:05:33;;;;;;;;;;;26.20;93.60;;;;;;5075198;28;20407;-66
2023/04/28 02:08:00;;;;;;;;;;;26.40;94.10;;;;;;5078258;28;19920;-65
2023/04/28 02:10:26;;;;;;;;;;;26.50;93.30;;;;;;5075762;28;19908;-66
2023/04/28 02:12:53;;;;;;;;;;;26.60;92.70;;;;;;5078989;28;20006;-63
2023/04/28 02:15:20;;;;;;;;;;;26.70;92.30;;;;;;5074342;28;19908;-66
2023/04/28 02:17:47;;;;;;;;;;;26.80;91.80;;;;;;5074692;28;19908;-65
2023/04/28 02:20:13;;;;;;;;;;;26.90;91.80;;;;;;5077373;28;19912;-65
2023/04/28 02:22:40;;;;;;;;;;;27.10;92.10;;;;;;5076339;28;19908;-67
2023/04/28 02:25:07;;;;;;;;;;;27.10;90.90;;;;;;5077894;28;19908;-68
2023/04/28 02:27:37;;;;;;;;;;;27.30;90.60;;;;;;5074813;28;19916;-65
2023/04/28 02:30:04;;;;;;;;;;;27.40;91.10;;;;;;5079022;28;19908;-66
2023/04/28 02:32:31;;;;;;;;;;;27.80;90.40;;;;;;5074622;28;19908;-68
2023/04/28 02:34:58;;;;;;;;;;;28.40;88.10;;;;;;5079360;28;19908;-68
2023/04/28 02:37:25;;;;;;;;;;;28.70;86.80;;;;;;5074801;28;19908;-67
2023/04/28 02:39:52;;;;;;;;;;;29.50;85.80;;;;;;5076784;28;19912;-67
2023/04/28 02:42:18;;;;;;;;;;;30.30;82.70;;;;;;5075672;28;20346;-68
2023/04/28 02:44:45;;;;;;;;;;;30.90;81.60;;;;;;5057778;28;20036;-66
2023/04/28 02:47:12;;;;;;;;;;;32.10;78.50;;;;;;5077150;28;19916;-68
2023/04/28 02:49:38;;;;;;;;;;;32.70;76.60;;;;;;5073833;28;19915;-67
2023/04/28 02:52:05;;;;;;;;;;;33.10;74.50;;;;;;5078667;28;20489;-66
2023/04/28 02:54:33;;;;;;;;;;;32.90;73.20;;;;;;5075429;28;19969;-64
2023/04/28 02:57:00;;;;;;;;;;;32.70;74.80;;;;;;5078671;28;19908;-67
2023/04/28 02:59:26;;;;;;;;;;;32.50;74.50;;;;;;5075019;28;19961;-66
2023/04/28 03:01:53;;;;;;;;;;;33.40;72.90;;;;;;5078692;28;20612;-68
2023/04/28 03:04:20;;;;;;;;;;;34.30;71.70;;;;;;5078134;28;19908;-70
2023/04/28 03:06:46;;;;;;;;;;;35.20;70.80;;;;;;5077672;28;20158;-68
2023/04/28 03:09:13;;;;;;;;;;;36.20;69.40;;;;;;5082239;28;19909;-68
2023/04/28 03:11:40;;;;;;;;;;;37.40;66.30;;;;;;5078582;28;20158;-69
2023/04/28 03:14:06;;;;;;;;;;;37.70;64.20;;;;;;5082455;28;20364;-70
2023/04/28 03:16:33;;;;;;;;;;;38.00;62.30;;;;;;5078838;28;19908;-67
2023/04/28 03:19:00;;;;;;;;;;;38.00;63.20;;;;;;5081943;28;19908;-66
2023/04/28 03:21:27;;;;;;;;;;;38.30;62.30;;;;;;5079745;28;20321;-67
2023/04/28 03:23:54;;;;;;;;;;;38.90;61.40;;;;;;5081616;28;20340;-68
2023/04/28 03:26:21;;;;;;;;;;;38.80;60.00;;;;;;5082027;28;19912;-67
2023/04/28 03:28:47;;;;;;;;;;;38.90;60.90;;;;;;5078971;28;20084;-67
2023/04/28 03:31:14;;;;;;;;;;;39.20;59.60;;;;;;5081647;28;20380;-67
2023/04/28 03:33:44;;;;;;;;;;;39.30;60.10;;;;;;5078485;28;20007;-66
2023/04/28 03:36:10;;;;;;;;;;;39.80;59.00;;;;;;5081964;28;19908;-66
2023/04/28 03:38:37;;;;;;;;;;;39.40;58.70;;;;;;5078335;28;20009;-66
2023/04/28 03:41:04;;;;;;;;;;;39.40;58.70;;;;;;5081331;28;19927;-66
2023/04/28 03:43:32;;;;;;;;;;;40.00;58.30;;;;;;5079086;28;19908;-67
2023/04/28 03:45:58;;;;;;;;;;;40.60;58.40;;;;;;5081776;28;19927;-67
2023/04/28 03:48:25;;;;;;;;;;;39.00;58.20;;;;;;5081763;28;19919;-66
2023/04/28 03:50:52;;;;;;;;;;;39.00;59.00;;;;;;5078662;28;20095;-66
2023/04/28 03:53:18;;;;;;;;;;;39.40;58.40;;;;;;5081481;28;20065;-67
2023/04/28 03:55:45;;;;;;;;;;;40.00;57.50;;;;;;5078375;28;19931;-67
2023/04/28 03:58:11;;;;;;;;;;;40.10;57.30;;;;;;5081438;28;19915;-66
2023/04/28 04:00:38;;;;;;;;;;;40.20;56.40;;;;;;5077901;28;19908;-66
2023/04/28 04:03:05;;;;;;;;;;;40.20;57.60;;;;;;5080110;28;19908;-66
2023/04/28 04:05:31;;;;;;;;;;;39.40;56.30;;;;;;5080236;28;19908;-67
2023/04/28 04:07:58;;;;;;;;;;;37.80;58.20;;;;;;5080037;28;19939;-67
2023/04/28 04:10:24;;;;;;;;;;;37.10;59.90;;;;;;5080874;28;20091;-67
2023/04/28 04:12:51;;;;;;;;;;;37.50;59.80;;;;;;5077584;28;19915;-68
2023/04/28 04:15:18;;;;;;;;;;;37.50;58.80;;;;;;5081420;28;19947;-67
2023/04/28 04:17:44;;;;;;;;;;;37.70;59.10;;;;;;5077720;28;20087;-67
2023/04/28 04:20:11;;;;;;;;;;;37.60;59.00;;;;;;5080676;28;19908;-68
2023/04/28 04:22:38;;;;;;;;;;;38.30;58.80;;;;;;5078626;28;20264;-67
2023/04/28 04:25:04;;;;;;;;;;;39.30;57.90;;;;;;5081118;28;20383;-68
2023/04/28 04:27:31;;;;;;;;;;;39.70;57.40;;;;;;5081147;28;20023;-67
2023/04/28 04:29:58;;;;;;;;;;;39.70;57.40;;;;;;5078060;28;20120;-68
2023/04/28 04:32:24;;;;;;;;;;;40.00;56.60;;;;;;5080869;28;19908;-68
2023/04/28 04:34:51;;;;;;;;;;;40.20;56.70;;;;;;5076387;28;19912;-68
2023/04/28 04:37:18;;;;;;;;;;;40.40;57.00;;;;;;5077941;28;19961;-67
2023/04/28 04:39:44;;;;;;;;;;;39.90;57.50;;;;;;5058534;28;19920;-67
2023/04/28 04:42:11;;;;;;;;;;;39.50;58.00;;;;;;5073583;28;19916;-67
2023/04/28 04:44:38;;;;;;;;;;;39.40;57.90;;;;;;5078031;28;20400;-68
2023/04/28 04:47:04;;;;;;;;;;;38.90;57.40;;;;;;5078199;28;19977;-67
2023/04/28 04:49:31;;;;;;;;;;;38.50;57.40;;;;;;5078851;28;20441;-68
2023/04/28 04:51:58;;;;;;;;;;;38.70;58.50;;;;;;5076087;28;19908;-69
2023/04/28 04:54:24;;;;;;;;;;;38.60;58.00;;;;;;5079038;28;20391;-68
2023/04/28 04:56:51;;;;;;;;;;;38.70;57.40;;;;;;5074972;28;19963;-68
2023/04/28 04:59:18;;;;;;;;;;;38.10;57.70;;;;;;5059819;28;20304;-67
2023/04/28 05:01:44;;;;;;;;;;;37.90;57.90;;;;;;5076682;28;19915;-69
2023/04/28 05:04:11;;;;;;;;;;;37.60;57.90;;;;;;5079623;28;20365;-68
2023/04/28 05:06:38;;;;;;;;;;;37.40;58.00;;;;;;5077674;28;19920;-68
2023/04/28 05:09:04;;;;;;;;;;;36.90;57.60;;;;;;5076358;28;19912;-66
2023/04/28 05:11:31;;;;;;;;;;;36.60;58.00;;;;;;5077665;28;20369;-66
2023/04/28 05:13:57;;;;;;;;;;;35.80;59.40;;;;;;5075475;28;19908;-66
2023/04/28 05:16:24;;;;;;;;;;;35.00;60.80;;;;;;5077920;28;19908;-66
2023/04/28 05:18:51;;;;;;;;;;;34.90;60.70;;;;;;5075943;28;19904;-68
2023/04/28 05:21:17;;;;;;;;;;;34.90;60.40;;;;;;5077801;28;20046;-67
2023/04/28 05:23:44;;;;;;;;;;;34.90;63.90;;;;;;5077400;28;19951;-68
2023/04/28 05:26:11;;;;;;;;;;;35.40;67.50;;;;;;5076974;28;19912;-66
2023/04/28 05:28:39;;;;;;;;;;;36.40;66.30;;;;;;5078667;28;20284;-66
2023/04/28 05:31:06;;;;;;;;;;;37.70;65.40;;;;;;5074390;28;20368;-67
2023/04/28 05:33:33;;;;;;;;;;;38.30;64.60;;;;;;5078972;28;19904;-66
2023/04/28 05:36:00;;;;;;;;;;;37.90;65.00;;;;;;5075456;28;20360;-67
2023/04/28 05:38:26;;;;;;;;;;;38.00;64.20;;;;;;5071583;28;20010;-66
2023/04/28 05:40:53;;;;;;;;;;;37.80;64.80;;;;;;5064638;28;19927;-66
2023/04/28 05:43:20;;;;;;;;;;;37.40;65.40;;;;;;5071953;28;19919;-68
2023/04/28 05:45:47;;;;;;;;;;;37.20;65.80;;;;;;5075259;28;21189;-67
2023/04/28 05:48:13;;;;;;;;;;;37.20;65.50;;;;;;5074552;28;19922;-66
2023/04/28 05:50:40;;;;;;;;;;;36.90;66.20;;;;;;5069528;28;19943;-66
2023/04/28 05:53:07;;;;;;;;;;;36.90;66.90;;;;;;5071523;28;20417;-66
2023/04/28 05:55:35;;;;;;;;;;;37.30;66.20;;;;;;5077118;28;20002;-66
2023/04/28 05:58:02;;;;;;;;;;;37.80;65.00;;;;;;5073701;28;20014;-67
2023/04/28 06:00:29;;;;;;;;;;;37.80;65.40;;;;;;5073452;28;19919;-66
2023/04/28 06:02:55;;;;;;;;;;;37.60;65.90;;;;;;5073877;28;20007;-69
2023/04/28 06:05:22;;;;;;;;;;;37.70;65.50;;;;;;5078605;28;19912;-68
2023/04/28 06:07:48;;;;;;;;;;;37.90;65.20;;;;;;5076376;28;19926;-68
2023/04/28 06:10:15;;;;;;;;;;;37.40;65.50;;;;;;5073855;28;19999;-67
2023/04/28 06:12:42;;;;;;;;;;;37.40;65.60;;;;;;5077838;28;20471;-68
2023/04/28 06:15:09;;;;;;;;;;;37.10;66.60;;;;;;5074261;28;20361;-68
2023/04/28 06:17:36;;;;;;;;;;;37.40;66.40;;;;;;5077327;28;19951;-68
2023/04/28 06:20:03;;;;;;;;;;;36.80;66.60;;;;;;5071152;28;20011;-67
2023/04/28 06:22:29;;;;;;;;;;;36.70;68.00;;;;;;5076189;28;19912;-68
2023/04/28 06:24:56;;;;;;;;;;;36.60;68.00;;;;;;5066496;28;19912;-68
2023/04/28 06:27:22;;;;;;;;;;;36.30;68.50;;;;;;5076866;28;19953;-68
2023/04/28 06:29:50;;;;;;;;;;;35.60;69.40;;;;;;5078164;28;19915;-68
2023/04/28 06:32:16;;;;;;;;;;;34.80;70.70;;;;;;5055121;28;20006;-68
2023/04/28 06:34:43;;;;;;;;;;;33.90;73.00;;;;;;5077607;28;19923;-67
2023/04/28 06:37:10;;;;;;;;;;;33.00;74.10;;;;;;5069040;28;19941;-66
2023/04/28 06:39:37;;;;;;;;;;;32.00;76.50;;;;;;5077944;28;19912;-67
2023/04/28 06:42:03;;;;;;;;;;;30.90;78.80;;;;;;5069231;28;19930;-68
2023/04/28 06:44:30;;;;;;;;;;;30.10;81.00;;;;;;5080571;28;19912;-68
2023/04/28 06:46:56;;;;;;;;;;;29.10;83.60;;;;;;5080861;28;19912;-67
2023/04/28 06:49:23;;;;;;;;;;;28.50;86.10;;;;;;5079103;28;19912;-66
2023/04/28 06:51:50;;;;;;;;;;;27.90;88.10;;;;;;5080835;28;19945;-68
2023/04/28 06:54:17;;;;;;;;;;;27.30;90.30;;;;;;5074692;28;19927;-68
2023/04/28 06:56:43;;;;;;;;;;;26.70;91.60;;;;;;5080769;28;20001;-68
2023/04/28 06:59:11;;;;;;;;;;;26.20;92.80;;;;;;5078055;28;19924;-66
2023/04/28 07:01:37;;;;;;;;;;;25.90;94.10;;;;;;5080339;28;20033;-67
2023/04/28 07:04:04;;;;;;;;;;;25.60;95.10;;;;;;5082845;28;19912;-68
2023/04/28 07:06:31;;;;;;;;;;;25.30;96.20;;;;;;5084455;28;19922;-68
2023/04/28 07:08:57;;;;;;;;;;;25.10;97.40;;;;;;5082095;28;19913;-68
2023/04/28 07:11:24;;;;;;;;;;;24.90;98.20;;;;;;5083679;28;20353;-68
2023/04/28 07:13:51;;;;;;;;;;;24.70;99.20;;;;;;5079562;28;20350;-67
2023/04/28 07:16:18;;;;;;;;;;;24.50;99.90;;;;;;5084134;28;19919;-69
2023/04/28 07:18:45;;;;;;;;;;;24.40;99.90;;;;;;5079168;28;20277;-67
2023/04/28 07:21:11;;;;;;;;;;;24.30;99.90;;;;;;5084272;28;20022;-66
2023/04/28 07:23:39;;;;;;;;;;;24.20;99.90;;;;;;5079855;28;19916;-68
2023/04/28 07:26:06;;;;;;;;;;;24.10;99.90;;;;;;5083911;28;20011;-67
2023/04/28 07:28:32;;;;;;;;;;;24.00;99.90;;;;;;5080670;28;19924;-68
2023/04/28 07:30:59;;;;;;;;;;;23.90;99.90;;;;;;5076499;28;19909;-67
2023/04/28 07:33:26;;;;;;;;;;;23.80;99.90;;;;;;5082266;28;19919;-66
2023/04/28 07:35:52;;;;;;;;;;;23.70;99.90;;;;;;5076290;28;20492;-67
2023/04/28 07:38:19;;;;;;;;;;;23.60;99.90;;;;;;5080920;28;19919;-66
2023/04/28 07:40:46;;;;;;;;;;;23.50;99.90;;;;;;5077880;28;20388;-66
2023/04/28 07:43:13;;;;;;;;;;;23.50;99.90;;;;;;5079140;28;19919;-66
2023/04/28 07:45:40;;;;;;;;;;;23.40;99.90;;;;;;5079040;28;19908;-68
2023/04/28 07:48:06;;;;;;;;;;;23.40;99.90;;;;;;5077652;28;20009;-67
2023/04/28 07:50:33;;;;;;;;;;;23.40;99.90;;;;;;5080760;28;19919;-67
2023/04/28 07:53:00;;;;;;;;;;;23.30;99.90;;;;;;5074842;28;20682;-67
2023/04/28 07:55:27;;;;;;;;;;;23.30;99.90;;;;;;5080816;28;19919;-67
2023/04/28 07:57:54;;;;;;;;;;;23.20;99.90;;;;;;5076840;28;19957;-68
2023/04/28 08:00:20;;;;;;;;;;;23.10;99.90;;;;;;5079752;28;20360;-67
2023/04/28 08:02:47;;;;;;;;;;;23.10;99.90;;;;;;5077744;28;19908;-67
2023/04/28 08:05:14;;;;;;;;;;;23.10;99.90;;;;;;5077821;28;19923;-68
2023/04/28 08:07:40;;;;;;;;;;;23.00;99.90;;;;;;5079509;28;19916;-69
2023/04/28 08:10:09;;;;;;;;;;;23.00;99.90;;;;;;5076293;28;19912;-67
2023/04/28 08:12:35;;;;;;;;;;;23.00;99.90;;;;;;5081096;28;20306;-68
2023/04/28 08:15:02;;;;;;;;;;;22.90;99.90;;;;;;5074747;28;20584;-69
2023/04/28 08:17:29;;;;;;;;;;;22.90;99.90;;;;;;5081023;28;19985;-67
2023/04/28 08:19:56;;;;;;;;;;;22.80;99.90;;;;;;5076561;28;19919;-69
2023/04/28 08:22:22;;;;;;;;;;;22.80;99.90;;;;;;5079006;28;20470;-68
2023/04/28 08:24:49;;;;;;;;;;;22.80;99.90;;;;;;5077019;28;19920;-68
2023/04/28 08:27:15;;;;;;;;;;;22.70;99.90;;;;;;5077424;28;20326;-67
2023/04/28 08:29:42;;;;;;;;;;;22.70;99.90;;;;;;5080210;28;19916;-68
2023/04/28 08:32:09;;;;;;;;;;;22.60;99.90;;;;;;5075815;28;19919;-68
2023/04/28 08:34:35;;;;;;;;;;;22.60;99.90;;;;;;5080580;28;19915;-68
2023/04/28 08:37:03;;;;;;;;;;;22.60;99.90;;;;;;5071498;28;20009;-67
2023/04/28 08:39:30;;;;;;;;;;;22.60;99.90;;;;;;5077974;28;19916;-68
2023/04/28 08:41:57;;;;;;;;;;;22.50;99.90;;;;;;5076326;28;19999;-68
2023/04/28 08:44:23;;;;;;;;;;;22.40;99.90;;;;;;5077618;28;20748;-67
2023/04/28 08:46:54;;;;;;;;;;;22.40;99.90;;;;;;5076103;28;20311;-68
2023/04/28 08:49:22;;;;;;;;;;;22.40;99.90;;;;;;5075881;28;20273;-69
2023/04/28 08:51:58;;;;;;;;;;;22.40;99.90;;;;;;5078207;28;19969;-69
2023/04/28 08:54:29;;;;;;;;;;;22.40;99.90;;;;;;5076981;28;19908;-67
2023/04/28 08:56:56;;;;;;;;;;;22.40;99.90;;;;;;5076029;28;19944;-67
2023/04/28 08:59:23;;;;;;;;;;;22.30;99.90;;;;;;5076456;28;20776;-68
2023/04/28 09:01:50;;;;;;;;;;;22.20;99.90;;;;;;5078770;28;19923;-68
2023/04/28 09:04:17;;;;;;;;;;;22.20;99.90;;;;;;5075474;28;19908;-67
2023/04/28 09:06:45;;;;;;;;;;;22.20;99.90;;;;;;5078547;28;19923;-68
2023/04/28 09:09:29;;;;;;;;;;;22.10;99.90;;;;;;5073285;28;19908;-69
2023/04/28 09:11:55;;;;;;;;;;;22.10;99.90;;;;;;5076049;28;20003;-69
2023/04/28 09:14:22;;;;;;;;;;;22.10;99.90;;;;;;5076006;28;19912;-67
2023/04/28 09:16:50;;;;;;;;;;;22.10;99.90;;;;;;5079684;28;19923;-69
2023/04/28 09:19:17;;;;;;;;;;;22.20;99.90;;;;;;5074315;28;19960;-67
2023/04/28 09:21:53;;;;;;;;;;;22.10;99.90;;;;;;5079039;28;19916;-66
2023/04/28 09:24:26;;;;;;;;;;;22.10;99.90;;;;;;5074898;28;20376;-67
2023/04/28 09:26:53;;;;;;;;;;;22.00;99.90;;;;;;5076979;28;19920;-68
2023/04/28 09:29:19;;;;;;;;;;;22.00;99.90;;;;;;5074304;28;19912;-66
2023/04/28 09:31:46;;;;;;;;;;;22.00;99.90;;;;;;5078927;28;19912;-68
2023/04/28 09:34:13;;;;;;;;;;;22.00;99.90;;;;;;5073430;28;20068;-68
2023/04/28 09:36:39;;;;;;;;;;;21.90;99.90;;;;;;5078378;28;19916;-67
2023/04/28 09:39:06;;;;;;;;;;;22.00;99.90;;;;;;5075451;28;20376;-68
2023/04/28 09:41:39;;;;;;;;;;;21.90;99.90;;;;;;5075973;28;19932;-68
2023/04/28 09:44:13;;;;;;;;;;;22.00;99.90;;;;;;5073066;28;19912;-66
2023/04/28 09:46:39;;;;;;;;;;;21.90;99.90;;;;;;5075903;28;19955;-68
2023/04/28 09:49:07;;;;;;;;;;;21.90;99.90;;;;;;5075226;28;19912;-67
2023/04/28 09:51:34;;;;;;;;;;;21.80;99.90;;;;;;5075860;28;19928;-67
2023/04/28 09:54:04;;;;;;;;;;;21.80;99.90;;;;;;5076250;28;19912;-68
2023/04/28 09:56:31;;;;;;;;;;;21.80;99.90;;;;;;5075385;28;19908;-68
2023/04/28 09:58:58;;;;;;;;;;;21.70;99.90;;;;;;5077511;28;19908;-69
2023/04/28 10:01:31;;;;;;;;;;;21.70;99.90;;;;;;5073676;28;20041;-67
2023/04/28 10:03:59;;;;;;;;;;;21.70;99.90;;;;;;5077341;28;19915;-69
2023/04/28 10:06:27;;;;;;;;;;;21.70;99.90;;;;;;5073923;28;19920;-68
2023/04/28 10:08:56;;;;;;;;;;;21.70;99.90;;;;;;5080003;28;19924;-68
2023/04/28 10:11:24;;;;;;;;;;;21.70;99.90;;;;;;5072736;28;19947;-67
2023/04/28 10:13:51;;;;;;;;;;;21.60;99.90;;;;;;5078986;28;20080;-67
2023/04/28 10:16:18;;;;;;;;;;;21.70;99.90;;;;;;5073819;28;19915;-70
2023/04/28 10:18:45;;;;;;;;;;;21.70;99.90;;;;;;5082098;28;19931;-68
2023/04/28 10:21:16;;;;;;;;;;;21.70;99.90;;;;;;5079203;28;19908;-69
2023/04/28 10:23:55;;;;;;;;;;;21.70;99.90;;;;;;5080683;28;19923;-68
2023/04/28 10:26:27;;;;;;;;;;;21.70;99.90;;;;;;5076893;28;19912;-69
2023/04/28 10:28:53;;;;;;;;;;;21.70;99.90;;;;;;5082409;28;19912;-68
2023/04/28 10:31:21;;;;;;;;;;;21.70;99.90;;;;;;5077279;28;19908;-68
2023/04/28 10:33:48;;;;;;;;;;;21.70;99.90;;;;;;5081751;28;19965;-68
2023/04/28 10:36:33;;;;;;;;;;;21.70;99.90;;;;;;5078899;28;19954;-67
2023/04/28 10:39:14;;;;;;;;;;;21.70;99.90;;;;;;5082348;28;19912;-67
2023/04/28 10:41:40;;;;;;;;;;;21.70;99.90;;;;;;5078926;28;20251;-68
2023/04/28 10:44:25;;;;;;;;;;;21.70;99.90;;;;;;5080600;28;19912;-68
2023/04/28 10:47:05;;;;;;;;;;;21.70;99.90;;;;;;5081335;28;20300;-68
2023/04/28 10:49:50;;;;;;;;;;;21.70;99.90;;;;;;5076762;28;19912;-68
2023/04/28 10:52:35;;;;;;;;;;;21.70;99.90;;;;;;5077438;28;20003;-68
2023/04/28 10:55:20;;;;;;;;;;;21.70;99.90;;;;;;5081457;28;20283;-67
2023/04/28 10:57:47;;;;;;;;;;;21.70;99.90;;;;;;5078647;28;19916;-68
2023/04/28 11:00:32;;;;;;;;;;;21.70;99.90;;;;;;5079045;28;20390;-68
2023/04/28 11:02:58;;;;;;;;;;;21.70;99.90;;;;;;5081375;28;20729;-68
2023/04/28 11:05:27;;;;;;;;;;;21.60;99.90;;;;;;5077573;28;20751;-68
2023/04/28 11:08:12;;;;;;;;;;;21.60;99.90;;;;;;5080226;28;19916;-68
2023/04/28 11:10:56;;;;;;;;;;;21.60;99.90;;;;;;5077110;28;19914;-68
2023/04/28 11:13:33;;;;;;;;;;;21.60;99.90;;;;;;5075675;28;19908;-69
2023/04/28 11:16:05;;;;;;;;;;;21.60;99.90;;;;;;5079334;28;19919;-67
2023/04/28 11:18:48;;;;;;;;;;;21.60;99.90;;;;;;5073533;28;19920;-68
2023/04/28 11:21:15;;;;;;;;;;;21.60;99.90;;;;;;5077299;28;19999;-69
2023/04/28 11:23:42;;;;;;;;;;;21.50;99.90;;;;;;5079788;28;19998;-67
2023/04/28 11:26:09;;;;;;;;;;;21.50;99.90;;;;;;5081134;28;19912;-68
2023/04/28 11:28:36;;;;;;;;;;;21.50;99.90;;;;;;5076824;28;19930;-67
2023/04/28 11:31:15;;;;;;;;;;;21.50;99.90;;;;;;5079915;28;20365;-67
2023/04/28 11:33:42;;;;;;;;;;;21.40;99.90;;;;;;5079124;28;19912;-68
2023/04/28 11:36:21;;;;;;;;;;;21.40;99.90;;;;;;5080615;28;19909;-67
2023/04/28 11:38:48;;;;;;;;;;;21.40;99.90;;;;;;5077954;28;19908;-68
2023/04/28 11:41:15;;;;;;;;;;;21.40;99.90;;;;;;5079714;28;19926;-68
2023/04/28 11:43:41;;;;;;;;;;;21.40;99.90;;;;;;5077958;28;20407;-68
2023/04/28 11:46:08;;;;;;;;;;;21.40;99.90;;;;;;5078982;28;19959;-68
2023/04/28 11:48:35;;;;;;;;;;;21.40;99.90;;;;;;5076122;28;19919;-68
2023/04/28 11:51:01;;;;;;;;;;;21.40;99.90;;;;;;5078149;28;19912;-69
2023/04/28 11:53:41;;;;;;;;;;;21.30;99.90;;;;;;5077916;28;19954;-68
2023/04/28 11:56:08;;;;;;;;;;;21.30;99.90;;;;;;5078938;28;19908;-69
2023/04/28 11:58:35;;;;;;;;;;;21.30;99.90;;;;;;5073843;28;19912;-68
2023/04/28 12:01:08;;;;;;;;;;;21.30;99.90;;;;;;5076768;28;20360;-70
2023/04/28 12:03:43;;;;;;;;;;;21.30;99.90;;;;;;5077086;28;20015;-70
2023/04/28 12:06:10;;;;;;;;;;;21.20;99.90;;;;;;5078422;28;19920;-69
2023/04/28 12:08:37;;;;;;;;;;;21.20;99.90;;;;;;5076458;28;20018;-69
2023/04/28 12:11:08;;;;;;;;;;;21.20;99.90;;;;;;5077858;28;19915;-69
2023/04/28 12:13:35;;;;;;;;;;;21.20;99.90;;;;;;5076570;28;19912;-68
2023/04/28 12:16:04;;;;;;;;;;;21.20;99.90;;;;;;5077700;28;19961;-68
2023/04/28 12:18:35;;;;;;;;;;;21.20;99.90;;;;;;5076531;28;19912;-68
2023/04/28 12:21:02;;;;;;;;;;;21.20;99.90;;;;;;5077307;28;19962;-70
2023/04/28 12:23:32;;;;;;;;;;;21.10;99.90;;;;;;5076792;28;20338;-68
2023/04/28 12:26:00;;;;;;;;;;;21.10;99.90;;;;;;5077437;28;19915;-68
2023/04/28 12:28:39;;;;;;;;;;;21.10;99.90;;;;;;5077544;28;19916;-68
2023/04/28 12:31:09;;;;;;;;;;;21.00;99.90;;;;;;5077529;28;19912;-67
2023/04/28 12:33:36;;;;;;;;;;;21.00;99.90;;;;;;5076947;28;19916;-69
2023/04/28 12:36:04;;;;;;;;;;;21.00;99.90;;;;;;5077155;28;20408;-70
2023/04/28 12:38:31;;;;;;;;;;;21.00;99.90;;;;;;5076840;28;19912;-68
2023/04/28 12:40:58;;;;;;;;;;;20.90;99.90;;;;;;5076609;28;19920;-67
2023/04/28 12:43:25;;;;;;;;;;;20.90;99.90;;;;;;5078202;28;19908;-69
2023/04/28 12:45:54;;;;;;;;;;;20.90;99.90;;;;;;5078012;28;19960;-69
2023/04/28 12:48:22;;;;;;;;;;;20.80;99.90;;;;;;5078454;28;19916;-69
2023/04/28 12:50:49;;;;;;;;;;;20.80;99.90;;;;;;5076029;28;19923;-68
2023/04/28 12:53:15;;;;;;;;;;;20.90;99.90;;;;;;5077882;28;19979;-67
2023/04/28 12:55:42;;;;;;;;;;;20.90;99.90;;;;;;5075925;28;19908;-69
2023/04/28 12:58:09;;;;;;;;;;;20.90;99.90;;;;;;5076527;28;19914;-69
2023/04/28 13:00:35;;;;;;;;;;;20.90;99.90;;;;;;5076052;28;20462;-68
2023/04/28 13:03:02;;;;;;;;;;;20.80;99.90;;;;;;5077987;28;19908;-66
2023/04/28 13:05:29;;;;;;;;;;;20.80;99.90;;;;;;5077787;28;19912;-68
2023/04/28 13:07:55;;;;;;;;;;;20.80;99.90;;;;;;5077127;28;19958;-69
2023/04/28 13:10:22;;;;;;;;;;;20.80;99.90;;;;;;5078515;28;19969;-67
2023/04/28 13:12:49;;;;;;;;;;;20.70;99.90;;;;;;5075395;28;19912;-69
2023/04/28 13:15:16;;;;;;;;;;;20.70;99.90;;;;;;5077732;28;19998;-68
2023/04/28 13:17:49;;;;;;;;;;;20.70;99.90;;;;;;5076204;28;19908;-69
2023/04/28 13:20:16;;;;;;;;;;;20.70;99.90;;;;;;5078028;28;19914;-69
2023/04/28 13:22:43;;;;;;;;;;;20.60;99.90;;;;;;5076263;28;19912;-71
2023/04/28 13:25:10;;;;;;;;;;;20.60;99.90;;;;;;5074130;28;19912;-67
2023/04/28 13:27:37;;;;;;;;;;;20.60;99.90;;;;;;5074567;28;19924;-71
2023/04/28 13:30:04;;;;;;;;;;;20.60;99.90;;;;;;5057662;28;19951;-68
2023/04/28 13:32:31;;;;;;;;;;;20.50;99.90;;;;;;5076371;28;19966;-68
2023/04/28 13:34:57;;;;;;;;;;;20.50;99.90;;;;;;5074901;28;19919;-67
2023/04/28 13:37:24;;;;;;;;;;;20.40;99.90;;;;;;5075507;28;20570;-67
2023/04/28 13:39:51;;;;;;;;;;;20.40;99.90;;;;;;5074372;28;19934;-69
2023/04/28 13:42:17;;;;;;;;;;;20.40;99.90;;;;;;5075377;28;19919;-70
2023/04/28 13:44:45;;;;;;;;;;;20.30;99.90;;;;;;5074425;28;19919;-68
2023/04/28 13:47:12;;;;;;;;;;;20.40;99.90;;;;;;5075564;28;19927;-67
2023/04/28 13:49:38;;;;;;;;;;;20.30;99.90;;;;;;5076774;28;19908;-69
2023/04/28 13:52:05;;;;;;;;;;;20.30;99.90;;;;;;5075259;28;19950;-68
2023/04/28 13:54:32;;;;;;;;;;;20.30;99.90;;;;;;5077535;28;19912;-68
2023/04/28 13:57:00;;;;;;;;;;;20.40;99.90;;;;;;5074571;28;20533;-68
2023/04/28 13:59:26;;;;;;;;;;;20.40;99.90;;;;;;5076429;28;20460;-68
2023/04/28 14:01:53;;;;;;;;;;;20.40;99.90;;;;;;5076679;28;19957;-69
2023/04/28 14:04:19;;;;;;;;;;;20.40;99.90;;;;;;5075189;28;19959;-67
2023/04/28 14:06:46;;;;;;;;;;;20.40;99.90;;;;;;5078007;28;19912;-68
2023/04/28 14:09:13;;;;;;;;;;;20.50;99.90;;;;;;5073318;28;20025;-68
2023/04/28 14:11:39;;;;;;;;;;;20.50;99.90;;;;;;5078027;28;19912;-68
2023/04/28 14:14:06;;;;;;;;;;;20.40;99.90;;;;;;5074113;28;19927;-68
2023/04/28 14:16:33;;;;;;;;;;;20.40;99.90;;;;;;5077372;28;19912;-68
2023/04/28 14:18:59;;;;;;;;;;;20.40;99.90;;;;;;5075710;28;19919;-69